Wartrace, Tennessee
Current Conditions -  °F | °C
As of 3:15 PM on Saturday 22 Nov 2014 (Local Time) from KSYI Reporting Station
Clear Clear  
Wind Chill: 63°   Ceiling: Unl
Heat Index: 63°   Visibility: 10mi
Dew Point: 45°   Wind: 17mph
Humidity: 52%   Direction: 190°S
Pressure: 30.18"   Gusts: NA
Location:  35.53°N, 86.33°W
Report Text: KSYI 222115Z AUTO 19015KT 10SM CLR 17/07 A3018 RMK
Loading
Personal Weather Stations






























Interactive Weather Map New forecast layout! Learn more

10-Day Weather Forecast

Advertisements
Track Severe Weather on mobile